createdAt,value
2018-03-31T00:02:00.076Z,55.85
2018-03-31T00:04:26.131Z,55.86
2018-03-31T00:06:52.276Z,55.78
2018-03-31T00:09:18.284Z,55.93
2018-03-31T00:11:44.378Z,55.82
2018-03-31T00:14:10.466Z,55.93
2018-03-31T00:16:36.477Z,55.96
2018-03-31T00:19:02.524Z,56.10
2018-03-31T00:21:28.589Z,56.10
2018-03-31T00:23:54.617Z,56.03
2018-03-31T00:26:20.635Z,56.05
2018-03-31T00:28:46.791Z,56.22
2018-03-31T00:31:12.813Z,56.37
2018-03-31T00:33:38.910Z,56.38
2018-03-31T00:36:04.973Z,56.19
2018-03-31T00:38:31.085Z,56.18
2018-03-31T00:40:57.116Z,56.13
2018-03-31T00:43:23.173Z,56.03
2018-03-31T00:45:49.219Z,56.32
2018-03-31T00:48:15.226Z,56.51
2018-03-31T00:50:41.283Z,56.75
2018-03-31T00:53:07.285Z,56.80
2018-03-31T00:55:33.349Z,56.68
2018-03-31T00:57:59.362Z,56.90
2018-03-31T01:00:25.469Z,56.76
2018-03-31T01:02:51.493Z,56.89
2018-03-31T01:05:17.526Z,56.99
2018-03-31T01:07:43.538Z,56.81
2018-03-31T01:10:09.532Z,56.80
2018-03-31T01:12:35.564Z,56.67
2018-03-31T01:15:02.642Z,56.76
2018-03-31T01:17:28.798Z,56.56
2018-03-31T01:19:54.831Z,56.65
2018-03-31T01:22:20.861Z,56.58
2018-03-31T01:24:46.981Z,56.62
2018-03-31T01:27:13.007Z,56.76
2018-03-31T01:29:39.024Z,56.87
2018-03-31T01:32:05.126Z,56.89
2018-03-31T01:34:31.159Z,56.87
2018-03-31T01:36:57.200Z,56.47
2018-03-31T01:39:23.262Z,56.63
2018-03-31T01:41:49.276Z,56.34
2018-03-31T01:44:15.297Z,56.87
2018-03-31T01:46:41.359Z,57.21
2018-03-31T01:49:07.435Z,57.24
2018-03-31T01:51:33.445Z,57.33
2018-03-31T01:53:59.498Z,57.37
2018-03-31T01:56:25.517Z,57.41
2018-03-31T01:58:51.536Z,57.42
2018-03-31T02:01:17.606Z,57.59
2018-03-31T02:03:43.617Z,57.64
2018-03-31T02:06:09.649Z,57.62
2018-03-31T02:08:35.656Z,57.80
2018-03-31T02:11:01.718Z,57.87
2018-03-31T02:13:27.729Z,58.05
2018-03-31T02:15:53.761Z,57.90
2018-03-31T02:18:19.761Z,57.65
2018-03-31T02:20:45.801Z,58.18
2018-03-31T02:23:11.805Z,58.21
2018-03-31T02:25:37.869Z,58.12
2018-03-31T02:28:03.935Z,58.44
2018-03-31T02:33:02.501Z,58.56
2018-03-31T02:35:28.614Z,58.55
2018-03-31T02:37:54.645Z,58.66
2018-03-31T02:40:20.655Z,58.88
2018-03-31T02:42:46.781Z,59.19
2018-03-31T02:45:12.785Z,59.03
2018-03-31T02:47:38.826Z,59.15
2018-03-31T02:50:04.964Z,59.16
2018-03-31T02:52:30.973Z,58.97
2018-03-31T02:54:57.029Z,59.02
2018-03-31T02:57:23.117Z,59.45
2018-03-31T02:59:49.184Z,59.72
2018-03-31T03:02:15.191Z,59.80
2018-03-31T03:04:41.262Z,59.62
2018-03-31T03:07:07.278Z,60.15
2018-03-31T03:09:33.297Z,60.09
2018-03-31T03:11:59.347Z,60.09
2018-03-31T03:14:25.422Z,60.00
2018-03-31T03:16:51.432Z,59.60
2018-03-31T03:19:17.436Z,59.56
2018-03-31T03:21:43.497Z,59.51
2018-03-31T03:24:09.521Z,59.62
2018-03-31T03:26:35.548Z,59.60
2018-03-31T03:29:01.557Z,59.63
2018-03-31T03:31:27.604Z,59.23
2018-03-31T03:33:54.393Z,59.28
2018-03-31T03:36:20.434Z,59.54
2018-03-31T03:38:46.500Z,59.41
2018-03-31T03:41:12.549Z,59.32
2018-03-31T03:43:38.573Z,59.03
2018-03-31T03:46:04.640Z,59.05
2018-03-31T03:48:30.761Z,58.95
2018-03-31T03:50:56.820Z,59.04
2018-03-31T03:53:22.941Z,59.13
2018-03-31T03:55:48.973Z,59.92
2018-03-31T03:58:15.004Z,60.23
2018-03-31T04:00:41.065Z,59.74
2018-03-31T04:03:07.100Z,59.66
2018-03-31T04:05:33.157Z,59.71
2018-03-31T04:07:59.236Z,59.31
2018-03-31T04:10:25.278Z,59.39
2018-03-31T04:12:51.276Z,59.51
2018-03-31T04:15:17.367Z,59.57
2018-03-31T04:17:43.378Z,60.04
2018-03-31T04:20:09.403Z,60.08
2018-03-31T04:22:35.436Z,60.12
2018-03-31T04:25:01.464Z,60.15
2018-03-31T04:27:27.478Z,60.08
2018-03-31T04:29:53.529Z,59.95
2018-03-31T04:32:19.542Z,60.08
2018-03-31T04:34:45.693Z,60.29
2018-03-31T04:37:11.748Z,60.39
2018-03-31T04:39:37.757Z,60.50
2018-03-31T04:42:03.846Z,60.51
2018-03-31T04:44:29.843Z,60.41
2018-03-31T04:46:55.877Z,60.46
2018-03-31T04:49:21.917Z,60.69
2018-03-31T04:51:47.994Z,60.50
2018-03-31T04:54:14.061Z,60.50
2018-03-31T04:56:40.125Z,60.20
2018-03-31T04:59:06.161Z,60.14
2018-03-31T05:01:32.253Z,60.58
2018-03-31T05:03:58.368Z,60.77
2018-03-31T05:06:24.438Z,60.82
2018-03-31T05:08:50.515Z,60.78
2018-03-31T05:11:16.612Z,60.81
2018-03-31T05:13:42.682Z,60.75
2018-03-31T05:16:08.724Z,60.56
2018-03-31T05:18:34.949Z,60.90
2018-03-31T05:21:00.982Z,61.01
2018-03-31T05:23:27.037Z,60.81
2018-03-31T05:25:53.120Z,60.88
2018-03-31T05:28:19.202Z,61.01
2018-03-31T05:30:45.231Z,60.74
2018-03-31T05:33:11.320Z,60.77
2018-03-31T05:35:37.357Z,61.04
2018-03-31T05:38:03.396Z,60.97
2018-03-31T05:40:29.481Z,60.71
2018-03-31T05:42:55.476Z,60.78
2018-03-31T05:45:21.506Z,60.68
2018-03-31T05:47:47.557Z,60.40
2018-03-31T05:50:13.624Z,60.45
2018-03-31T05:52:39.639Z,60.20
2018-03-31T05:55:05.677Z,60.03
2018-03-31T05:57:31.683Z,59.85
2018-03-31T05:59:57.720Z,59.54
2018-03-31T06:02:23.756Z,59.33
2018-03-31T06:04:49.757Z,59.23
2018-03-31T06:07:15.808Z,59.11
2018-03-31T06:09:41.809Z,58.83
2018-03-31T06:12:07.868Z,58.49
2018-03-31T06:14:33.878Z,58.82
2018-03-31T06:16:59.923Z,58.48
2018-03-31T06:19:25.962Z,58.45
2018-03-31T06:21:52.002Z,58.33
2018-03-31T06:24:18.014Z,58.40
2018-03-31T06:26:44.021Z,58.84
2018-03-31T06:29:10.050Z,59.13
2018-03-31T06:31:36.097Z,58.95
2018-03-31T06:34:02.136Z,59.16
2018-03-31T06:36:28.150Z,59.67
2018-03-31T06:38:54.180Z,59.88
2018-03-31T06:41:20.195Z,60.33
2018-03-31T06:43:46.361Z,60.88
2018-03-31T06:46:12.390Z,61.07
2018-03-31T06:48:38.457Z,61.17
2018-03-31T06:51:04.456Z,61.49
2018-03-31T06:53:30.505Z,61.98
2018-03-31T06:55:56.569Z,62.27
2018-03-31T06:58:22.592Z,62.19
2018-03-31T07:00:48.676Z,62.01
2018-03-31T07:03:14.725Z,61.53
2018-03-31T07:05:40.753Z,61.39
2018-03-31T07:08:06.761Z,61.24
2018-03-31T07:10:32.784Z,61.06
2018-03-31T07:12:58.797Z,60.71
2018-03-31T07:15:24.833Z,60.57
2018-03-31T07:17:50.836Z,60.32
2018-03-31T07:20:16.836Z,60.17
2018-03-31T07:22:42.893Z,60.15
2018-03-31T07:25:08.901Z,60.38
2018-03-31T07:27:34.977Z,60.13
2018-03-31T07:30:00.984Z,59.70
2018-03-31T07:32:27.008Z,59.56
2018-03-31T07:34:53.029Z,59.04
2018-03-31T07:37:19.073Z,58.76
2018-03-31T07:39:45.086Z,58.56
2018-03-31T07:42:11.118Z,58.40
2018-03-31T07:44:37.119Z,58.33
2018-03-31T07:47:03.197Z,58.21
2018-03-31T07:49:29.245Z,57.74
2018-03-31T07:51:55.253Z,57.80
2018-03-31T07:54:21.308Z,58.06
2018-03-31T07:56:47.326Z,58.02
2018-03-31T07:59:13.353Z,57.94
2018-03-31T08:01:39.369Z,57.59
2018-03-31T08:04:05.450Z,57.65
2018-03-31T08:06:31.461Z,57.79
2018-03-31T08:08:57.544Z,57.39
2018-03-31T08:11:23.573Z,57.15
2018-03-31T08:13:49.596Z,56.39
2018-03-31T08:16:15.634Z,56.36
2018-03-31T08:18:41.651Z,56.24
2018-03-31T08:21:07.693Z,56.47
2018-03-31T08:23:33.713Z,56.76
2018-03-31T08:25:59.750Z,56.38
2018-03-31T08:28:25.780Z,56.26
2018-03-31T08:30:51.820Z,56.56
2018-03-31T08:33:17.829Z,56.66
2018-03-31T08:35:43.881Z,57.11
2018-03-31T08:38:09.893Z,57.29
2018-03-31T08:40:35.914Z,57.26
2018-03-31T08:43:01.983Z,57.27
2018-03-31T08:45:28.038Z,57.25
2018-03-31T08:47:54.197Z,57.33
2018-03-31T08:50:20.249Z,57.30
2018-03-31T08:52:46.313Z,57.40
2018-03-31T08:55:12.800Z,57.27
2018-03-31T08:57:38.837Z,57.36
2018-03-31T09:00:04.864Z,57.66
2018-03-31T09:02:30.904Z,57.68
2018-03-31T09:04:56.948Z,58.65
2018-03-31T09:07:22.958Z,59.14
2018-03-31T09:09:48.990Z,59.57
2018-03-31T09:12:14.998Z,59.74
2018-03-31T09:14:41.166Z,59.98
2018-03-31T09:17:07.251Z,59.99
2018-03-31T09:19:33.285Z,59.75
2018-03-31T09:21:59.373Z,59.53
2018-03-31T09:24:25.454Z,59.55
2018-03-31T09:26:51.514Z,59.54
2018-03-31T09:29:17.570Z,59.55
2018-03-31T09:31:43.584Z,59.51
2018-03-31T09:34:09.587Z,59.39
2018-03-31T09:36:35.638Z,59.37
2018-03-31T09:39:01.717Z,59.52
2018-03-31T09:41:27.883Z,59.67
2018-03-31T09:43:53.920Z,59.42
2018-03-31T09:46:19.948Z,59.62
2018-03-31T09:48:45.957Z,60.57
2018-03-31T09:51:11.986Z,60.57
2018-03-31T09:53:38.023Z,60.71
2018-03-31T09:56:04.072Z,60.31
2018-03-31T09:58:30.077Z,60.34
2018-03-31T10:01:02.265Z,60.45
2018-03-31T10:03:28.303Z,60.41
2018-03-31T10:05:54.386Z,60.54
2018-03-31T10:08:20.440Z,60.83
2018-03-31T10:10:46.472Z,61.44
2018-03-31T10:13:12.505Z,61.99
2018-03-31T10:15:38.553Z,62.77
2018-03-31T10:18:04.586Z,62.84
2018-03-31T10:20:30.600Z,63.29
2018-03-31T10:22:56.742Z,64.06
2018-03-31T10:25:22.769Z,64.36
2018-03-31T10:27:48.783Z,64.11
2018-03-31T10:30:14.810Z,64.05
2018-03-31T10:32:40.840Z,63.73
2018-03-31T10:35:07.207Z,63.08
2018-03-31T10:37:33.256Z,62.68
2018-03-31T10:39:59.324Z,62.06
2018-03-31T10:42:25.511Z,61.31
2018-03-31T10:44:51.603Z,62.39
2018-03-31T10:47:17.722Z,63.13
2018-03-31T10:49:43.789Z,62.53
2018-03-31T10:52:09.829Z,60.51
2018-03-31T10:54:35.845Z,58.99
2018-03-31T10:57:01.890Z,58.18
2018-03-31T10:59:27.911Z,57.43
2018-03-31T11:01:53.946Z,58.16
2018-03-31T11:04:19.961Z,58.14
2018-03-31T11:06:46.001Z,58.30
2018-03-31T11:09:12.006Z,58.94
2018-03-31T11:11:38.039Z,58.86
2018-03-31T11:14:04.176Z,59.16
2018-03-31T11:16:30.202Z,59.29
2018-03-31T11:18:56.223Z,59.09
2018-03-31T11:21:22.293Z,58.25
2018-03-31T11:23:48.317Z,57.49
2018-03-31T11:26:14.397Z,56.94
2018-03-31T11:28:40.417Z,56.58
2018-03-31T11:31:06.441Z,57.00
2018-03-31T11:33:32.479Z,57.48
2018-03-31T11:35:58.482Z,57.58
2018-03-31T11:38:24.544Z,57.79
2018-03-31T11:40:50.552Z,57.59
2018-03-31T11:43:16.576Z,57.85
2018-03-31T11:45:42.614Z,58.58
2018-03-31T11:48:08.674Z,59.25
2018-03-31T11:50:34.680Z,59.70
2018-03-31T11:53:00.750Z,60.73
2018-03-31T11:55:26.762Z,61.34
2018-03-31T11:57:52.774Z,61.38
2018-03-31T12:00:18.839Z,61.65
2018-03-31T12:02:44.857Z,61.79
2018-03-31T12:05:10.881Z,61.51
2018-03-31T12:07:36.924Z,61.32
2018-03-31T12:10:02.959Z,61.40
2018-03-31T12:12:29.012Z,61.23
2018-03-31T12:14:55.044Z,61.78
2018-03-31T12:17:21.045Z,61.74
2018-03-31T12:19:47.065Z,61.87
2018-03-31T12:22:13.102Z,61.76
2018-03-31T12:24:39.114Z,61.42
2018-03-31T12:27:05.270Z,61.13
2018-03-31T12:29:31.428Z,61.01
2018-03-31T12:31:57.519Z,60.31
2018-03-31T12:34:23.661Z,59.26
2018-03-31T12:36:49.728Z,58.28
2018-03-31T12:39:15.769Z,57.63
2018-03-31T12:41:41.808Z,57.18
2018-03-31T12:44:07.818Z,57.26
2018-03-31T12:46:33.829Z,57.10
2018-03-31T12:48:59.952Z,57.35
2018-03-31T12:51:25.962Z,58.27
2018-03-31T12:53:52.242Z,57.72
2018-03-31T12:56:18.239Z,57.34
2018-03-31T12:58:44.296Z,57.24
2018-03-31T13:01:10.348Z,56.79
2018-03-31T13:03:36.380Z,56.55
2018-03-31T13:06:02.386Z,55.93
2018-03-31T13:08:28.502Z,55.70
2018-03-31T13:10:54.716Z,56.32
2018-03-31T13:13:20.772Z,57.16
2018-03-31T13:15:46.801Z,57.55
2018-03-31T13:18:12.842Z,58.51
2018-03-31T13:20:38.947Z,59.27
2018-03-31T13:23:04.959Z,59.75
2018-03-31T13:25:30.989Z,59.86
2018-03-31T13:27:57.088Z,59.84
2018-03-31T13:30:23.118Z,59.89
2018-03-31T13:32:49.149Z,59.82
2018-03-31T13:35:15.201Z,59.92
2018-03-31T13:37:41.213Z,60.36
2018-03-31T13:40:07.221Z,60.37
2018-03-31T13:42:33.258Z,60.30
2018-03-31T13:44:59.266Z,60.43
2018-03-31T13:47:25.290Z,60.49
2018-03-31T13:49:51.310Z,60.35
2018-03-31T13:52:17.344Z,60.00
2018-03-31T13:54:43.354Z,59.63
2018-03-31T13:57:09.390Z,60.03
2018-03-31T13:59:35.410Z,60.11
2018-03-31T14:02:01.466Z,60.34
2018-03-31T14:04:27.474Z,60.68
2018-03-31T14:06:53.566Z,60.93
2018-03-31T14:09:19.593Z,61.17
2018-03-31T14:11:45.647Z,60.90
2018-03-31T14:14:11.708Z,60.78
2018-03-31T14:16:37.725Z,60.87
2018-03-31T14:19:03.771Z,61.03
2018-03-31T14:21:29.795Z,61.11
2018-03-31T14:23:55.841Z,61.08
2018-03-31T14:26:21.859Z,61.36
2018-03-31T14:28:47.901Z,61.50
2018-03-31T14:31:13.917Z,61.30
2018-03-31T14:33:39.978Z,61.16
2018-03-31T14:36:06.021Z,61.31
2018-03-31T14:38:32.025Z,61.20
2018-03-31T14:40:58.070Z,61.28
2018-03-31T14:43:24.125Z,61.59
2018-03-31T14:45:50.172Z,60.96
2018-03-31T14:48:16.197Z,61.08
2018-03-31T14:50:42.229Z,61.21
2018-03-31T14:53:08.241Z,61.12
2018-03-31T14:55:34.285Z,60.68
2018-03-31T14:58:00.292Z,60.72
2018-03-31T15:00:26.302Z,60.57
2018-03-31T15:02:52.361Z,60.56
2018-03-31T15:05:18.374Z,60.52
2018-03-31T15:07:44.396Z,60.62
2018-03-31T15:10:10.458Z,60.83
2018-03-31T15:12:37.685Z,61.02
2018-03-31T15:15:03.762Z,61.21
2018-03-31T15:17:29.740Z,61.17
2018-03-31T15:19:55.781Z,61.00
2018-03-31T15:22:21.830Z,60.92
2018-03-31T15:24:47.932Z,60.99
2018-03-31T15:27:13.982Z,61.21
2018-03-31T15:29:40.014Z,61.43
2018-03-31T15:32:06.084Z,61.35
2018-03-31T15:34:32.212Z,61.35
2018-03-31T15:36:58.248Z,61.31
2018-03-31T15:39:24.296Z,61.34
2018-03-31T15:41:50.325Z,61.56
2018-03-31T15:44:16.359Z,61.54
2018-03-31T15:46:42.398Z,61.67
2018-03-31T15:49:08.476Z,61.66
2018-03-31T15:51:34.509Z,61.63
2018-03-31T15:54:00.594Z,61.54
2018-03-31T15:56:26.626Z,61.55
2018-03-31T15:58:52.633Z,63.11
2018-03-31T16:01:18.665Z,61.43
2018-03-31T16:03:44.687Z,61.92
2018-03-31T16:06:10.711Z,62.00
2018-03-31T16:08:36.731Z,62.07
2018-03-31T16:11:02.769Z,62.43
2018-03-31T16:13:28.779Z,62.38
2018-03-31T16:15:54.825Z,62.51
2018-03-31T16:18:20.866Z,62.74
2018-03-31T16:20:46.897Z,63.01
2018-03-31T16:23:13.001Z,63.23
2018-03-31T16:25:39.005Z,63.37
2018-03-31T16:28:05.096Z,63.63
2018-03-31T16:30:31.116Z,63.79
2018-03-31T16:32:57.201Z,63.69
2018-03-31T16:35:23.226Z,63.50
2018-03-31T16:37:49.261Z,63.62
2018-03-31T16:40:15.324Z,63.29
2018-03-31T16:42:41.336Z,62.91
2018-03-31T16:45:07.361Z,63.13
2018-03-31T16:47:33.372Z,63.34
2018-03-31T16:49:59.405Z,63.28
2018-03-31T16:52:25.438Z,62.97
2018-03-31T16:54:51.470Z,62.65
2018-03-31T16:57:17.470Z,62.49
2018-03-31T16:59:43.517Z,62.42
2018-03-31T17:02:09.510Z,62.66
2018-03-31T17:04:35.544Z,62.60
2018-03-31T17:07:01.558Z,62.86
2018-03-31T17:09:27.601Z,62.77
2018-03-31T17:11:53.607Z,63.02
2018-03-31T17:14:19.650Z,63.25
2018-03-31T17:16:45.724Z,63.32
2018-03-31T17:19:11.740Z,63.19
2018-03-31T17:21:37.777Z,63.61
2018-03-31T17:24:03.798Z,63.67
2018-03-31T17:26:29.866Z,63.52
2018-03-31T17:28:55.868Z,63.24
2018-03-31T17:31:21.893Z,63.15
2018-03-31T17:33:47.925Z,63.29
2018-03-31T17:36:13.957Z,63.00
2018-03-31T17:38:40.002Z,62.83
2018-03-31T17:41:06.030Z,62.59
2018-03-31T17:43:32.086Z,62.91
2018-03-31T17:45:58.107Z,62.82
2018-03-31T17:48:24.136Z,63.07
2018-03-31T17:50:50.258Z,63.18
2018-03-31T17:53:16.299Z,63.21
2018-03-31T17:55:42.301Z,63.36
2018-03-31T17:58:08.420Z,63.47
2018-03-31T18:00:34.430Z,63.30
2018-03-31T18:03:00.446Z,63.58
2018-03-31T18:05:26.494Z,63.32
2018-03-31T18:07:52.491Z,63.68
2018-03-31T18:10:18.538Z,63.63
2018-03-31T18:12:44.532Z,63.64
2018-03-31T18:15:10.569Z,63.42
2018-03-31T18:17:36.582Z,63.25
2018-03-31T18:20:02.674Z,63.03
2018-03-31T18:22:28.661Z,62.96
2018-03-31T18:24:54.710Z,62.91
2018-03-31T18:27:20.752Z,63.01
2018-03-31T18:29:46.754Z,63.02
2018-03-31T18:32:12.788Z,63.10
2018-03-31T18:34:38.836Z,63.18
2018-03-31T18:37:05.141Z,63.30
2018-03-31T18:39:31.159Z,63.31
2018-03-31T18:41:57.262Z,63.48
2018-03-31T18:44:23.474Z,63.81
2018-03-31T18:46:49.545Z,64.00
2018-03-31T18:49:16.172Z,64.14
2018-03-31T18:51:42.534Z,64.34
2018-03-31T18:54:08.988Z,64.26
2018-03-31T18:56:35.630Z,64.15
2018-03-31T18:59:02.064Z,64.24
2018-03-31T19:01:29.003Z,64.32
2018-03-31T19:03:55.488Z,64.31
2018-03-31T19:06:22.260Z,64.70
2018-03-31T19:08:48.787Z,65.01
2018-03-31T19:11:15.211Z,65.39
2018-03-31T19:13:41.840Z,65.12
2018-03-31T19:16:08.315Z,65.09
2018-03-31T19:18:35.145Z,64.87
2018-03-31T19:21:01.585Z,64.68
2018-03-31T19:23:28.503Z,64.79
2018-03-31T19:25:55.265Z,64.48
2018-03-31T19:28:21.831Z,63.83
2018-03-31T19:30:50.190Z,63.50
2018-03-31T19:33:16.991Z,63.50
2018-03-31T19:35:49.504Z,63.92
2018-03-31T19:38:16.245Z,63.65
2018-03-31T19:40:42.863Z,63.67
2018-03-31T19:43:09.910Z,63.42
2018-03-31T19:45:36.151Z,63.52
2018-03-31T19:48:02.186Z,63.56
2018-03-31T19:50:28.248Z,63.32
2018-03-31T19:52:54.309Z,63.50
2018-03-31T19:55:20.356Z,63.58
2018-03-31T19:57:46.408Z,63.80
2018-03-31T20:00:12.474Z,64.05
2018-03-31T20:02:38.521Z,64.12
2018-03-31T20:05:04.566Z,64.15
2018-03-31T20:07:30.651Z,64.77
2018-03-31T20:09:56.760Z,65.41
2018-03-31T20:12:22.890Z,65.54
2018-03-31T20:14:48.968Z,65.89
2018-03-31T20:17:15.023Z,66.12
2018-03-31T20:19:41.247Z,66.38
2018-03-31T20:22:07.316Z,66.48
2018-03-31T20:24:33.339Z,66.55
2018-03-31T20:26:59.363Z,66.73
2018-03-31T20:29:25.450Z,67.05
2018-03-31T20:31:51.504Z,67.12
2018-03-31T20:34:17.581Z,67.22
2018-03-31T20:36:43.633Z,67.07
2018-03-31T20:39:09.712Z,67.31
2018-03-31T20:41:35.768Z,67.62
2018-03-31T20:44:01.793Z,67.35
2018-03-31T20:46:28.027Z,67.27
2018-03-31T20:48:54.070Z,67.30
2018-03-31T20:51:20.173Z,67.32
2018-03-31T20:53:46.465Z,67.42
2018-03-31T20:56:12.533Z,67.62
2018-03-31T20:58:38.552Z,68.09
2018-03-31T21:01:04.690Z,68.26
2018-03-31T21:03:30.741Z,68.44
2018-03-31T21:05:56.790Z,68.42
2018-03-31T21:08:22.993Z,68.70
2018-03-31T21:10:49.007Z,68.71
2018-03-31T21:13:15.032Z,69.09
2018-03-31T21:15:41.141Z,69.11
2018-03-31T21:18:07.202Z,69.12
2018-03-31T21:20:33.243Z,69.18
2018-03-31T21:22:59.340Z,69.09
2018-03-31T21:25:25.366Z,69.08
2018-03-31T21:27:51.405Z,69.34
2018-03-31T21:30:17.460Z,69.70
2018-03-31T21:32:43.481Z,69.73
2018-03-31T21:35:09.626Z,69.72
2018-03-31T21:37:35.645Z,69.58
2018-03-31T21:40:01.686Z,69.36
2018-03-31T21:42:27.713Z,69.48
2018-03-31T21:44:53.789Z,69.41
2018-03-31T21:47:19.832Z,69.36
2018-03-31T21:49:45.876Z,69.30
2018-03-31T21:52:11.893Z,69.52
2018-03-31T21:54:37.933Z,69.31
2018-03-31T21:57:04.020Z,68.84
2018-03-31T21:59:30.065Z,68.75
2018-03-31T22:01:56.137Z,68.59
2018-03-31T22:04:22.148Z,69.08
2018-03-31T22:06:48.177Z,68.62
2018-03-31T22:12:04.537Z,68.12
2018-03-31T22:14:36.889Z,67.82
2018-03-31T22:17:02.919Z,67.46
2018-03-31T22:19:29.098Z,67.52
2018-03-31T22:21:55.257Z,67.30
2018-03-31T22:24:21.310Z,66.82
2018-03-31T22:26:47.543Z,67.49
2018-03-31T22:29:13.577Z,67.02
2018-03-31T22:31:39.585Z,66.83
2018-03-31T22:34:06.018Z,66.55
2018-03-31T22:36:32.021Z,66.29
2018-03-31T22:38:58.034Z,66.04
2018-03-31T22:41:24.333Z,65.99
2018-03-31T22:43:50.357Z,65.76
2018-03-31T22:46:16.361Z,65.71
2018-03-31T22:48:42.630Z,65.59
2018-03-31T22:51:08.629Z,65.71
2018-03-31T22:53:34.681Z,65.57
2018-03-31T22:56:00.970Z,65.80
2018-03-31T22:58:26.977Z,66.03
2018-03-31T23:00:53.095Z,66.10
2018-03-31T23:03:19.231Z,66.19
2018-03-31T23:05:45.254Z,66.11
2018-03-31T23:08:11.484Z,65.83
2018-03-31T23:10:37.548Z,65.61
2018-03-31T23:13:03.555Z,65.48
2018-03-31T23:15:29.862Z,65.62
2018-03-31T23:17:55.924Z,65.84
2018-03-31T23:20:21.953Z,65.96
2018-03-31T23:22:48.268Z,66.01
2018-03-31T23:25:14.348Z,66.10
2018-03-31T23:27:40.360Z,66.04
2018-03-31T23:30:06.608Z,65.82
2018-03-31T23:32:32.661Z,65.84
2018-03-31T23:34:58.657Z,65.65
2018-03-31T23:37:24.804Z,65.60
2018-03-31T23:39:50.873Z,65.41
2018-03-31T23:42:16.944Z,65.70
2018-03-31T23:44:43.193Z,65.80
2018-03-31T23:47:09.227Z,65.58
2018-03-31T23:49:35.364Z,65.31
2018-03-31T23:52:01.509Z,65.12
2018-03-31T23:54:27.557Z,64.85
2018-03-31T23:56:53.800Z,65.11
2018-03-31T23:59:19.836Z,65.21
